sensor_id;sensor_type;location;lat;lon;timestamp;P1;durP1;ratioP1;P2;durP2;ratioP2
10226;SDS011;15634;48.766;2.272;2023-04-24T00:01:20;6.20;;;3.17;;
10226;SDS011;15634;48.766;2.272;2023-04-24T00:03:46;8.65;;;3.35;;
10226;SDS011;15634;48.766;2.272;2023-04-24T00:06:13;7.43;;;3.70;;
10226;SDS011;15634;48.766;2.272;2023-04-24T00:08:41;8.63;;;3.28;;
10226;SDS011;15634;48.766;2.272;2023-04-24T00:11:08;7.30;;;3.20;;
10226;SDS011;15634;48.766;2.272;2023-04-24T00:13:36;7.47;;;3.53;;
10226;SDS011;15634;48.766;2.272;2023-04-24T00:16:03;11.98;;;3.55;;
10226;SDS011;15634;48.766;2.272;2023-04-24T00:18:30;8.80;;;3.30;;
10226;SDS011;15634;48.766;2.272;2023-04-24T00:20:57;8.55;;;3.30;;
10226;SDS011;15634;48.766;2.272;2023-04-24T00:23:24;9.93;;;3.35;;
10226;SDS011;15634;48.766;2.272;2023-04-24T00:25:50;9.13;;;3.30;;
10226;SDS011;15634;48.766;2.272;2023-04-24T00:28:17;11.48;;;3.63;;
10226;SDS011;15634;48.766;2.272;2023-04-24T00:30:45;6.78;;;3.10;;
10226;SDS011;15634;48.766;2.272;2023-04-24T00:33:11;6.65;;;3.50;;
10226;SDS011;15634;48.766;2.272;2023-04-24T00:35:38;6.18;;;3.17;;
10226;SDS011;15634;48.766;2.272;2023-04-24T00:38:05;8.95;;;3.30;;
10226;SDS011;15634;48.766;2.272;2023-04-24T00:40:32;8.27;;;3.58;;
10226;SDS011;15634;48.766;2.272;2023-04-24T00:42:59;10.65;;;3.10;;
10226;SDS011;15634;48.766;2.272;2023-04-24T00:45:25;8.15;;;3.10;;
10226;SDS011;15634;48.766;2.272;2023-04-24T00:47:53;8.02;;;3.47;;
10226;SDS011;15634;48.766;2.272;2023-04-24T00:50:20;8.52;;;3.47;;
10226;SDS011;15634;48.766;2.272;2023-04-24T00:52:47;8.13;;;3.22;;
10226;SDS011;15634;48.766;2.272;2023-04-24T00:55:14;8.02;;;3.60;;
10226;SDS011;15634;48.766;2.272;2023-04-24T00:57:41;10.15;;;3.60;;
10226;SDS011;15634;48.766;2.272;2023-04-24T01:00:08;12.40;;;3.88;;
10226;SDS011;15634;48.766;2.272;2023-04-24T01:02:37;6.88;;;3.35;;
10226;SDS011;15634;48.766;2.272;2023-04-24T01:05:07;6.00;;;3.13;;
10226;SDS011;15634;48.766;2.272;2023-04-24T01:07:34;9.55;;;3.40;;
10226;SDS011;15634;48.766;2.272;2023-04-24T01:10:01;10.98;;;3.65;;
10226;SDS011;15634;48.766;2.272;2023-04-24T01:12:27;10.85;;;3.65;;
10226;SDS011;15634;48.766;2.272;2023-04-24T01:14:54;7.43;;;3.40;;
10226;SDS011;15634;48.766;2.272;2023-04-24T01:17:22;8.57;;;3.75;;
10226;SDS011;15634;48.766;2.272;2023-04-24T01:19:49;7.50;;;3.25;;
10226;SDS011;15634;48.766;2.272;2023-04-24T01:22:20;9.00;;;3.50;;
10226;SDS011;15634;48.766;2.272;2023-04-24T01:24:46;7.25;;;3.35;;
10226;SDS011;15634;48.766;2.272;2023-04-24T01:27:13;5.80;;;3.30;;
10226;SDS011;15634;48.766;2.272;2023-04-24T01:29:40;9.70;;;3.70;;
10226;SDS011;15634;48.766;2.272;2023-04-24T01:32:07;7.60;;;3.10;;
10226;SDS011;15634;48.766;2.272;2023-04-24T01:34:34;8.50;;;3.20;;
10226;SDS011;15634;48.766;2.272;2023-04-24T01:37:00;8.75;;;3.30;;
10226;SDS011;15634;48.766;2.272;2023-04-24T01:39:28;10.25;;;3.40;;
10226;SDS011;15634;48.766;2.272;2023-04-24T01:41:55;8.90;;;3.25;;
10226;SDS011;15634;48.766;2.272;2023-04-24T01:44:22;9.25;;;3.35;;
10226;SDS011;15634;48.766;2.272;2023-04-24T01:46:49;7.75;;;3.20;;
10226;SDS011;15634;48.766;2.272;2023-04-24T01:49:16;9.63;;;3.17;;
10226;SDS011;15634;48.766;2.272;2023-04-24T01:51:42;7.50;;;3.00;;
10226;SDS011;15634;48.766;2.272;2023-04-24T01:54:09;7.18;;;3.10;;
10226;SDS011;15634;48.766;2.272;2023-04-24T01:56:37;14.10;;;3.75;;
10226;SDS011;15634;48.766;2.272;2023-04-24T01:59:06;9.65;;;3.00;;
10226;SDS011;15634;48.766;2.272;2023-04-24T02:01:33;10.68;;;3.20;;
10226;SDS011;15634;48.766;2.272;2023-04-24T02:04:01;9.27;;;3.28;;
10226;SDS011;15634;48.766;2.272;2023-04-24T02:06:28;8.57;;;3.08;;
10226;SDS011;15634;48.766;2.272;2023-04-24T02:08:56;9.50;;;3.05;;
10226;SDS011;15634;48.766;2.272;2023-04-24T02:11:23;8.43;;;3.38;;
10226;SDS011;15634;48.766;2.272;2023-04-24T02:13:51;9.77;;;3.05;;
10226;SDS011;15634;48.766;2.272;2023-04-24T02:16:17;6.95;;;2.80;;
10226;SDS011;15634;48.766;2.272;2023-04-24T02:18:44;15.07;;;3.40;;
10226;SDS011;15634;48.766;2.272;2023-04-24T02:21:11;10.43;;;3.20;;
10226;SDS011;15634;48.766;2.272;2023-04-24T02:23:37;6.13;;;3.10;;
10226;SDS011;15634;48.766;2.272;2023-04-24T02:26:04;7.13;;;3.03;;
10226;SDS011;15634;48.766;2.272;2023-04-24T02:28:31;7.30;;;2.83;;
10226;SDS011;15634;48.766;2.272;2023-04-24T02:30:59;7.57;;;3.30;;
10226;SDS011;15634;48.766;2.272;2023-04-24T02:33:26;6.90;;;2.75;;
10226;SDS011;15634;48.766;2.272;2023-04-24T02:35:52;10.07;;;3.25;;
10226;SDS011;15634;48.766;2.272;2023-04-24T02:38:19;9.00;;;3.42;;
10226;SDS011;15634;48.766;2.272;2023-04-24T02:40:46;7.75;;;3.15;;
10226;SDS011;15634;48.766;2.272;2023-04-24T02:43:12;5.85;;;2.85;;
10226;SDS011;15634;48.766;2.272;2023-04-24T02:45:39;5.68;;;2.97;;
10226;SDS011;15634;48.766;2.272;2023-04-24T02:48:07;7.72;;;3.00;;
10226;SDS011;15634;48.766;2.272;2023-04-24T02:50:33;7.95;;;2.83;;
10226;SDS011;15634;48.766;2.272;2023-04-24T02:53:00;6.82;;;2.97;;
10226;SDS011;15634;48.766;2.272;2023-04-24T02:55:27;10.73;;;3.25;;
10226;SDS011;15634;48.766;2.272;2023-04-24T02:57:53;10.30;;;3.55;;
10226;SDS011;15634;48.766;2.272;2023-04-24T03:00:20;6.03;;;3.03;;
10226;SDS011;15634;48.766;2.272;2023-04-24T03:02:47;10.75;;;2.95;;
10226;SDS011;15634;48.766;2.272;2023-04-24T03:05:15;9.15;;;3.20;;
10226;SDS011;15634;48.766;2.272;2023-04-24T03:07:42;6.15;;;3.17;;
10226;SDS011;15634;48.766;2.272;2023-04-24T03:10:10;8.35;;;2.92;;
10226;SDS011;15634;48.766;2.272;2023-04-24T03:12:37;6.95;;;3.03;;
10226;SDS011;15634;48.766;2.272;2023-04-24T03:15:04;9.18;;;2.85;;
10226;SDS011;15634;48.766;2.272;2023-04-24T03:17:31;5.50;;;2.72;;
10226;SDS011;15634;48.766;2.272;2023-04-24T03:19:58;8.68;;;3.10;;
10226;SDS011;15634;48.766;2.272;2023-04-24T03:22:26;8.07;;;3.17;;
10226;SDS011;15634;48.766;2.272;2023-04-24T03:24:52;8.80;;;2.97;;
10226;SDS011;15634;48.766;2.272;2023-04-24T03:27:19;9.40;;;3.00;;
10226;SDS011;15634;48.766;2.272;2023-04-24T03:29:46;12.63;;;3.10;;
10226;SDS011;15634;48.766;2.272;2023-04-24T03:32:13;6.85;;;3.05;;
10226;SDS011;15634;48.766;2.272;2023-04-24T03:34:39;8.95;;;3.25;;
10226;SDS011;15634;48.766;2.272;2023-04-24T03:37:06;13.85;;;3.30;;
10226;SDS011;15634;48.766;2.272;2023-04-24T03:39:34;8.30;;;2.95;;
10226;SDS011;15634;48.766;2.272;2023-04-24T03:42:00;7.75;;;3.63;;
10226;SDS011;15634;48.766;2.272;2023-04-24T03:44:28;10.15;;;3.00;;
10226;SDS011;15634;48.766;2.272;2023-04-24T03:46:54;10.65;;;3.30;;
10226;SDS011;15634;48.766;2.272;2023-04-24T03:49:21;9.93;;;2.97;;
10226;SDS011;15634;48.766;2.272;2023-04-24T03:51:48;6.80;;;2.95;;
10226;SDS011;15634;48.766;2.272;2023-04-24T03:54:14;7.18;;;3.20;;
10226;SDS011;15634;48.766;2.272;2023-04-24T03:56:43;8.80;;;3.75;;
10226;SDS011;15634;48.766;2.272;2023-04-24T03:59:09;8.35;;;2.72;;
10226;SDS011;15634;48.766;2.272;2023-04-24T04:01:36;9.73;;;3.17;;
10226;SDS011;15634;48.766;2.272;2023-04-24T04:04:03;13.48;;;3.22;;
10226;SDS011;15634;48.766;2.272;2023-04-24T04:06:29;9.35;;;3.35;;
10226;SDS011;15634;48.766;2.272;2023-04-24T04:08:56;16.25;;;3.58;;
10226;SDS011;15634;48.766;2.272;2023-04-24T04:11:24;10.80;;;3.42;;
10226;SDS011;15634;48.766;2.272;2023-04-24T04:13:52;6.22;;;2.83;;
10226;SDS011;15634;48.766;2.272;2023-04-24T04:16:19;6.93;;;3.15;;
10226;SDS011;15634;48.766;2.272;2023-04-24T04:18:46;6.70;;;3.17;;
10226;SDS011;15634;48.766;2.272;2023-04-24T04:21:13;7.63;;;3.28;;
10226;SDS011;15634;48.766;2.272;2023-04-24T04:23:39;7.75;;;3.65;;
10226;SDS011;15634;48.766;2.272;2023-04-24T04:26:06;7.95;;;3.50;;
10226;SDS011;15634;48.766;2.272;2023-04-24T04:28:34;9.15;;;3.33;;
10226;SDS011;15634;48.766;2.272;2023-04-24T04:31:02;10.02;;;3.30;;
10226;SDS011;15634;48.766;2.272;2023-04-24T04:33:28;9.30;;;4.07;;
10226;SDS011;15634;48.766;2.272;2023-04-24T04:35:56;8.10;;;3.55;;
10226;SDS011;15634;48.766;2.272;2023-04-24T04:38:23;6.18;;;3.38;;
10226;SDS011;15634;48.766;2.272;2023-04-24T04:40:51;9.68;;;3.85;;
10226;SDS011;15634;48.766;2.272;2023-04-24T04:43:18;8.18;;;3.40;;
10226;SDS011;15634;48.766;2.272;2023-04-24T04:45:44;13.75;;;3.83;;
10226;SDS011;15634;48.766;2.272;2023-04-24T04:48:14;9.98;;;3.53;;
10226;SDS011;15634;48.766;2.272;2023-04-24T04:50:43;9.27;;;3.58;;
10226;SDS011;15634;48.766;2.272;2023-04-24T04:53:09;7.25;;;3.30;;
10226;SDS011;15634;48.766;2.272;2023-04-24T04:55:36;11.48;;;4.45;;
10226;SDS011;15634;48.766;2.272;2023-04-24T04:58:03;9.65;;;3.60;;
10226;SDS011;15634;48.766;2.272;2023-04-24T05:00:29;9.88;;;4.13;;
10226;SDS011;15634;48.766;2.272;2023-04-24T05:03:00;9.30;;;3.70;;
10226;SDS011;15634;48.766;2.272;2023-04-24T05:05:28;8.88;;;3.45;;
10226;SDS011;15634;48.766;2.272;2023-04-24T05:07:55;13.13;;;4.57;;
10226;SDS011;15634;48.766;2.272;2023-04-24T05:10:22;8.98;;;3.65;;
10226;SDS011;15634;48.766;2.272;2023-04-24T05:12:48;6.45;;;4.03;;
10226;SDS011;15634;48.766;2.272;2023-04-24T05:15:15;6.47;;;3.67;;
10226;SDS011;15634;48.766;2.272;2023-04-24T05:17:42;7.38;;;3.67;;
10226;SDS011;15634;48.766;2.272;2023-04-24T05:20:08;21.13;;;9.18;;
10226;SDS011;15634;48.766;2.272;2023-04-24T05:22:37;16.23;;;5.80;;
10226;SDS011;15634;48.766;2.272;2023-04-24T05:25:04;13.20;;;6.70;;
10226;SDS011;15634;48.766;2.272;2023-04-24T05:27:30;14.10;;;7.53;;
10226;SDS011;15634;48.766;2.272;2023-04-24T05:29:57;11.30;;;4.95;;
10226;SDS011;15634;48.766;2.272;2023-04-24T05:32:24;12.45;;;5.32;;
10226;SDS011;15634;48.766;2.272;2023-04-24T05:34:50;11.13;;;5.20;;
10226;SDS011;15634;48.766;2.272;2023-04-24T05:37:17;11.55;;;4.57;;
10226;SDS011;15634;48.766;2.272;2023-04-24T05:39:45;15.57;;;6.45;;
10226;SDS011;15634;48.766;2.272;2023-04-24T05:42:12;11.18;;;4.60;;
10226;SDS011;15634;48.766;2.272;2023-04-24T05:44:38;9.93;;;4.40;;
10226;SDS011;15634;48.766;2.272;2023-04-24T05:47:05;11.52;;;4.40;;
10226;SDS011;15634;48.766;2.272;2023-04-24T05:49:31;9.43;;;4.53;;
10226;SDS011;15634;48.766;2.272;2023-04-24T05:51:58;9.77;;;4.35;;
10226;SDS011;15634;48.766;2.272;2023-04-24T05:54:24;13.73;;;4.95;;
10226;SDS011;15634;48.766;2.272;2023-04-24T05:56:52;12.77;;;4.78;;
10226;SDS011;15634;48.766;2.272;2023-04-24T05:59:20;11.05;;;4.65;;
10226;SDS011;15634;48.766;2.272;2023-04-24T06:01:47;14.07;;;4.97;;
10226;SDS011;15634;48.766;2.272;2023-04-24T06:04:13;10.25;;;5.20;;
10226;SDS011;15634;48.766;2.272;2023-04-24T06:06:40;15.15;;;5.05;;
10226;SDS011;15634;48.766;2.272;2023-04-24T06:09:07;9.73;;;4.93;;
10226;SDS011;15634;48.766;2.272;2023-04-24T06:11:33;9.70;;;4.93;;
10226;SDS011;15634;48.766;2.272;2023-04-24T06:14:01;10.93;;;4.50;;
10226;SDS011;15634;48.766;2.272;2023-04-24T06:16:28;8.88;;;4.88;;
10226;SDS011;15634;48.766;2.272;2023-04-24T06:18:56;9.50;;;5.03;;
10226;SDS011;15634;48.766;2.272;2023-04-24T06:21:23;12.02;;;4.78;;
10226;SDS011;15634;48.766;2.272;2023-04-24T06:23:50;17.27;;;5.10;;
10226;SDS011;15634;48.766;2.272;2023-04-24T06:26:17;9.23;;;5.28;;
10226;SDS011;15634;48.766;2.272;2023-04-24T06:28:43;13.88;;;5.13;;
10226;SDS011;15634;48.766;2.272;2023-04-24T06:31:12;11.13;;;5.07;;
10226;SDS011;15634;48.766;2.272;2023-04-24T06:33:38;13.18;;;5.50;;
10226;SDS011;15634;48.766;2.272;2023-04-24T06:36:05;7.78;;;5.20;;
10226;SDS011;15634;48.766;2.272;2023-04-24T06:38:32;10.10;;;4.95;;
10226;SDS011;15634;48.766;2.272;2023-04-24T06:40:59;6.80;;;4.57;;
10226;SDS011;15634;48.766;2.272;2023-04-24T06:43:26;10.32;;;5.00;;
10226;SDS011;15634;48.766;2.272;2023-04-24T06:45:53;11.55;;;5.30;;
10226;SDS011;15634;48.766;2.272;2023-04-24T06:48:20;11.05;;;5.07;;
10226;SDS011;15634;48.766;2.272;2023-04-24T06:50:47;10.45;;;5.53;;
10226;SDS011;15634;48.766;2.272;2023-04-24T06:53:14;12.95;;;5.72;;
10226;SDS011;15634;48.766;2.272;2023-04-24T06:55:40;12.13;;;4.93;;
10226;SDS011;15634;48.766;2.272;2023-04-24T06:58:08;12.13;;;5.75;;
10226;SDS011;15634;48.766;2.272;2023-04-24T07:00:38;15.68;;;5.47;;
10226;SDS011;15634;48.766;2.272;2023-04-24T07:03:04;8.95;;;5.60;;
10226;SDS011;15634;48.766;2.272;2023-04-24T07:05:33;9.93;;;5.40;;
10226;SDS011;15634;48.766;2.272;2023-04-24T07:08:00;14.30;;;5.15;;
10226;SDS011;15634;48.766;2.272;2023-04-24T07:10:27;10.75;;;5.55;;
10226;SDS011;15634;48.766;2.272;2023-04-24T07:12:54;13.07;;;6.15;;
10226;SDS011;15634;48.766;2.272;2023-04-24T07:15:21;13.68;;;6.53;;
10226;SDS011;15634;48.766;2.272;2023-04-24T07:17:48;10.43;;;5.90;;
10226;SDS011;15634;48.766;2.272;2023-04-24T07:20:15;11.15;;;5.93;;
10226;SDS011;15634;48.766;2.272;2023-04-24T07:22:43;12.68;;;5.55;;
10226;SDS011;15634;48.766;2.272;2023-04-24T07:25:10;11.23;;;5.50;;
10226;SDS011;15634;48.766;2.272;2023-04-24T07:27:37;13.15;;;6.15;;
10226;SDS011;15634;48.766;2.272;2023-04-24T07:30:04;14.38;;;6.05;;
10226;SDS011;15634;48.766;2.272;2023-04-24T07:32:31;14.35;;;5.95;;
10226;SDS011;15634;48.766;2.272;2023-04-24T07:34:58;14.18;;;5.78;;
10226;SDS011;15634;48.766;2.272;2023-04-24T07:37:25;11.05;;;5.65;;
10226;SDS011;15634;48.766;2.272;2023-04-24T07:39:53;11.57;;;5.80;;
10226;SDS011;15634;48.766;2.272;2023-04-24T07:42:20;13.80;;;6.38;;
10226;SDS011;15634;48.766;2.272;2023-04-24T07:44:46;11.30;;;6.88;;
10226;SDS011;15634;48.766;2.272;2023-04-24T07:47:13;14.80;;;7.32;;
10226;SDS011;15634;48.766;2.272;2023-04-24T07:49:41;15.27;;;6.55;;
10226;SDS011;15634;48.766;2.272;2023-04-24T07:52:07;14.82;;;7.93;;
10226;SDS011;15634;48.766;2.272;2023-04-24T07:54:34;11.63;;;7.18;;
10226;SDS011;15634;48.766;2.272;2023-04-24T07:57:03;13.20;;;6.78;;
10226;SDS011;15634;48.766;2.272;2023-04-24T07:59:31;14.60;;;7.55;;
10226;SDS011;15634;48.766;2.272;2023-04-24T08:01:58;12.50;;;7.35;;
10226;SDS011;15634;48.766;2.272;2023-04-24T08:04:26;17.45;;;8.40;;
10226;SDS011;15634;48.766;2.272;2023-04-24T08:06:53;12.38;;;7.53;;
10226;SDS011;15634;48.766;2.272;2023-04-24T08:09:19;15.93;;;7.18;;
10226;SDS011;15634;48.766;2.272;2023-04-24T08:11:46;11.35;;;7.22;;
10226;SDS011;15634;48.766;2.272;2023-04-24T08:14:14;18.90;;;7.43;;
10226;SDS011;15634;48.766;2.272;2023-04-24T08:16:40;14.63;;;7.68;;
10226;SDS011;15634;48.766;2.272;2023-04-24T08:19:07;14.30;;;7.45;;
10226;SDS011;15634;48.766;2.272;2023-04-24T08:21:34;12.18;;;8.10;;
10226;SDS011;15634;48.766;2.272;2023-04-24T08:24:01;12.75;;;8.05;;
10226;SDS011;15634;48.766;2.272;2023-04-24T08:26:30;11.88;;;7.57;;
10226;SDS011;15634;48.766;2.272;2023-04-24T08:28:56;14.73;;;7.32;;
10226;SDS011;15634;48.766;2.272;2023-04-24T08:31:24;12.30;;;7.40;;
10226;SDS011;15634;48.766;2.272;2023-04-24T08:33:52;15.02;;;8.30;;
10226;SDS011;15634;48.766;2.272;2023-04-24T08:36:18;12.75;;;7.13;;
10226;SDS011;15634;48.766;2.272;2023-04-24T08:38:45;13.18;;;7.20;;
10226;SDS011;15634;48.766;2.272;2023-04-24T08:41:12;11.93;;;7.00;;
10226;SDS011;15634;48.766;2.272;2023-04-24T08:43:40;10.63;;;7.22;;
10226;SDS011;15634;48.766;2.272;2023-04-24T08:46:07;14.15;;;7.28;;
10226;SDS011;15634;48.766;2.272;2023-04-24T08:48:36;9.55;;;6.65;;
10226;SDS011;15634;48.766;2.272;2023-04-24T08:51:04;12.13;;;7.18;;
10226;SDS011;15634;48.766;2.272;2023-04-24T08:53:33;15.18;;;8.00;;
10226;SDS011;15634;48.766;2.272;2023-04-24T08:56:00;11.73;;;7.50;;
10226;SDS011;15634;48.766;2.272;2023-04-24T08:58:27;12.30;;;7.28;;
10226;SDS011;15634;48.766;2.272;2023-04-24T09:00:54;12.18;;;6.93;;
10226;SDS011;15634;48.766;2.272;2023-04-24T09:03:21;10.90;;;7.15;;
10226;SDS011;15634;48.766;2.272;2023-04-24T09:05:49;11.15;;;7.15;;
10226;SDS011;15634;48.766;2.272;2023-04-24T09:08:17;12.05;;;7.13;;
10226;SDS011;15634;48.766;2.272;2023-04-24T09:10:45;12.38;;;7.85;;
10226;SDS011;15634;48.766;2.272;2023-04-24T09:13:11;10.85;;;7.30;;
10226;SDS011;15634;48.766;2.272;2023-04-24T09:15:38;14.18;;;6.88;;
10226;SDS011;15634;48.766;2.272;2023-04-24T09:18:06;11.38;;;7.20;;
10226;SDS011;15634;48.766;2.272;2023-04-24T09:20:33;12.27;;;7.20;;
10226;SDS011;15634;48.766;2.272;2023-04-24T09:23:02;11.65;;;7.22;;
10226;SDS011;15634;48.766;2.272;2023-04-24T09:25:30;10.57;;;6.90;;
10226;SDS011;15634;48.766;2.272;2023-04-24T09:28:00;11.43;;;6.95;;
10226;SDS011;15634;48.766;2.272;2023-04-24T09:30:27;12.50;;;7.22;;
10226;SDS011;15634;48.766;2.272;2023-04-24T09:33:09;10.10;;;6.85;;
10226;SDS011;15634;48.766;2.272;2023-04-24T09:35:37;9.88;;;6.47;;
10226;SDS011;15634;48.766;2.272;2023-04-24T09:38:08;9.77;;;6.45;;
10226;SDS011;15634;48.766;2.272;2023-04-24T09:40:35;13.43;;;6.80;;
10226;SDS011;15634;48.766;2.272;2023-04-24T09:43:01;13.75;;;7.18;;
10226;SDS011;15634;48.766;2.272;2023-04-24T09:45:29;11.93;;;7.60;;
10226;SDS011;15634;48.766;2.272;2023-04-24T09:48:01;10.52;;;7.07;;
10226;SDS011;15634;48.766;2.272;2023-04-24T09:50:29;11.52;;;7.30;;
10226;SDS011;15634;48.766;2.272;2023-04-24T09:52:57;12.30;;;6.93;;
10226;SDS011;15634;48.766;2.272;2023-04-24T09:55:27;11.73;;;7.70;;
10226;SDS011;15634;48.766;2.272;2023-04-24T09:57:55;12.05;;;6.93;;
10226;SDS011;15634;48.766;2.272;2023-04-24T10:00:22;11.43;;;6.70;;
10226;SDS011;15634;48.766;2.272;2023-04-24T10:02:50;13.57;;;7.05;;
10226;SDS011;15634;48.766;2.272;2023-04-24T10:05:18;10.25;;;6.57;;
10226;SDS011;15634;48.766;2.272;2023-04-24T10:07:45;11.70;;;7.05;;
10226;SDS011;15634;48.766;2.272;2023-04-24T10:10:12;10.45;;;7.05;;
10226;SDS011;15634;48.766;2.272;2023-04-24T10:12:40;11.20;;;7.35;;
10226;SDS011;15634;48.766;2.272;2023-04-24T10:15:10;11.85;;;7.85;;
10226;SDS011;15634;48.766;2.272;2023-04-24T10:17:39;10.18;;;6.45;;
10226;SDS011;15634;48.766;2.272;2023-04-24T10:20:06;11.48;;;6.57;;
10226;SDS011;15634;48.766;2.272;2023-04-24T10:22:33;9.88;;;6.15;;
10226;SDS011;15634;48.766;2.272;2023-04-24T10:25:00;11.70;;;6.05;;
10226;SDS011;15634;48.766;2.272;2023-04-24T10:27:31;9.65;;;5.13;;
10226;SDS011;15634;48.766;2.272;2023-04-24T10:30:03;9.25;;;6.00;;
10226;SDS011;15634;48.766;2.272;2023-04-24T10:32:30;9.35;;;5.75;;
10226;SDS011;15634;48.766;2.272;2023-04-24T10:34:57;10.30;;;5.82;;
10226;SDS011;15634;48.766;2.272;2023-04-24T10:37:24;7.65;;;4.90;;
10226;SDS011;15634;48.766;2.272;2023-04-24T10:39:52;9.80;;;5.22;;
10226;SDS011;15634;48.766;2.272;2023-04-24T10:42:19;12.98;;;5.95;;
10226;SDS011;15634;48.766;2.272;2023-04-24T10:44:47;9.45;;;5.75;;
10226;SDS011;15634;48.766;2.272;2023-04-24T10:47:15;9.52;;;5.45;;
10226;SDS011;15634;48.766;2.272;2023-04-24T10:49:42;7.13;;;5.07;;
10226;SDS011;15634;48.766;2.272;2023-04-24T10:52:09;9.95;;;5.68;;
10226;SDS011;15634;48.766;2.272;2023-04-24T10:54:41;8.70;;;5.20;;
10226;SDS011;15634;48.766;2.272;2023-04-24T10:57:27;8.90;;;5.78;;
10226;SDS011;15634;48.766;2.272;2023-04-24T11:00:15;9.93;;;5.57;;
10226;SDS011;15634;48.766;2.272;2023-04-24T11:02:45;10.75;;;5.95;;
10226;SDS011;15634;48.766;2.272;2023-04-24T11:05:15;9.88;;;5.80;;
10226;SDS011;15634;48.766;2.272;2023-04-24T11:10:38;9.18;;;5.40;;
10226;SDS011;15634;48.766;2.272;2023-04-24T11:13:05;6.88;;;5.07;;
10226;SDS011;15634;48.766;2.272;2023-04-24T11:15:33;7.53;;;5.43;;
10226;SDS011;15634;48.766;2.272;2023-04-24T11:18:01;9.00;;;5.15;;
10226;SDS011;15634;48.766;2.272;2023-04-24T11:20:27;7.82;;;5.20;;
10226;SDS011;15634;48.766;2.272;2023-04-24T11:22:54;9.23;;;5.47;;
10226;SDS011;15634;48.766;2.272;2023-04-24T11:25:22;6.40;;;5.18;;
10226;SDS011;15634;48.766;2.272;2023-04-24T11:27:50;8.88;;;5.25;;
10226;SDS011;15634;48.766;2.272;2023-04-24T11:30:17;8.00;;;5.03;;
10226;SDS011;15634;48.766;2.272;2023-04-24T11:32:46;9.52;;;5.18;;
10226;SDS011;15634;48.766;2.272;2023-04-24T11:35:16;8.35;;;4.90;;
10226;SDS011;15634;48.766;2.272;2023-04-24T11:37:45;9.80;;;4.75;;
10226;SDS011;15634;48.766;2.272;2023-04-24T11:40:12;8.10;;;4.28;;
10226;SDS011;15634;48.766;2.272;2023-04-24T11:42:41;8.95;;;4.88;;
10226;SDS011;15634;48.766;2.272;2023-04-24T11:45:10;8.07;;;4.00;;
10226;SDS011;15634;48.766;2.272;2023-04-24T11:47:38;6.32;;;4.18;;
10226;SDS011;15634;48.766;2.272;2023-04-24T11:50:05;6.28;;;4.00;;
10226;SDS011;15634;48.766;2.272;2023-04-24T11:52:37;7.57;;;4.00;;
10226;SDS011;15634;48.766;2.272;2023-04-24T11:55:06;6.57;;;4.00;;
10226;SDS011;15634;48.766;2.272;2023-04-24T11:57:34;5.93;;;4.07;;
10226;SDS011;15634;48.766;2.272;2023-04-24T12:00:02;6.00;;;3.97;;
10226;SDS011;15634;48.766;2.272;2023-04-24T12:02:30;7.22;;;3.83;;
10226;SDS011;15634;48.766;2.272;2023-04-24T12:04:57;7.38;;;3.72;;
10226;SDS011;15634;48.766;2.272;2023-04-24T12:07:23;5.47;;;3.92;;
10226;SDS011;15634;48.766;2.272;2023-04-24T12:09:56;4.32;;;3.47;;
10226;SDS011;15634;48.766;2.272;2023-04-24T12:12:25;5.38;;;3.67;;
10226;SDS011;15634;48.766;2.272;2023-04-24T12:14:52;6.65;;;3.72;;
10226;SDS011;15634;48.766;2.272;2023-04-24T12:17:23;6.43;;;3.80;;
10226;SDS011;15634;48.766;2.272;2023-04-24T12:19:50;9.32;;;3.60;;
10226;SDS011;15634;48.766;2.272;2023-04-24T12:22:18;6.85;;;3.63;;
10226;SDS011;15634;48.766;2.272;2023-04-24T12:24:59;7.72;;;3.80;;
10226;SDS011;15634;48.766;2.272;2023-04-24T12:29:55;6.53;;;3.90;;
10226;SDS011;15634;48.766;2.272;2023-04-24T12:32:23;5.50;;;3.35;;
10226;SDS011;15634;48.766;2.272;2023-04-24T12:34:50;5.00;;;3.10;;
10226;SDS011;15634;48.766;2.272;2023-04-24T12:37:17;6.68;;;3.55;;
10226;SDS011;15634;48.766;2.272;2023-04-24T12:39:44;4.28;;;3.28;;
10226;SDS011;15634;48.766;2.272;2023-04-24T12:42:26;4.60;;;3.50;;
10226;SDS011;15634;48.766;2.272;2023-04-24T12:44:55;6.20;;;4.20;;
10226;SDS011;15634;48.766;2.272;2023-04-24T12:47:22;5.45;;;3.20;;
10226;SDS011;15634;48.766;2.272;2023-04-24T12:49:49;7.45;;;3.47;;
10226;SDS011;15634;48.766;2.272;2023-04-24T12:52:17;5.15;;;3.08;;
10226;SDS011;15634;48.766;2.272;2023-04-24T12:54:45;6.32;;;3.35;;
10226;SDS011;15634;48.766;2.272;2023-04-24T12:57:13;3.58;;;2.80;;
10226;SDS011;15634;48.766;2.272;2023-04-24T12:59:40;6.18;;;3.20;;
10226;SDS011;15634;48.766;2.272;2023-04-24T13:02:06;4.18;;;2.78;;
10226;SDS011;15634;48.766;2.272;2023-04-24T13:04:34;5.82;;;2.80;;
10226;SDS011;15634;48.766;2.272;2023-04-24T13:07:00;7.20;;;3.00;;
10226;SDS011;15634;48.766;2.272;2023-04-24T13:09:27;5.38;;;2.90;;
10226;SDS011;15634;48.766;2.272;2023-04-24T13:11:54;4.82;;;3.08;;
10226;SDS011;15634;48.766;2.272;2023-04-24T13:14:22;4.65;;;3.22;;
10226;SDS011;15634;48.766;2.272;2023-04-24T13:16:49;5.18;;;2.78;;
10226;SDS011;15634;48.766;2.272;2023-04-24T13:19:16;3.92;;;2.70;;
10226;SDS011;15634;48.766;2.272;2023-04-24T13:21:43;6.57;;;2.67;;
10226;SDS011;15634;48.766;2.272;2023-04-24T13:24:10;4.63;;;2.80;;
10226;SDS011;15634;48.766;2.272;2023-04-24T13:26:38;4.95;;;3.10;;
10226;SDS011;15634;48.766;2.272;2023-04-24T13:29:04;6.60;;;3.10;;
10226;SDS011;15634;48.766;2.272;2023-04-24T13:31:33;5.70;;;2.50;;
10226;SDS011;15634;48.766;2.272;2023-04-24T13:33:59;4.05;;;2.70;;
10226;SDS011;15634;48.766;2.272;2023-04-24T13:36:26;4.13;;;2.50;;
10226;SDS011;15634;48.766;2.272;2023-04-24T13:38:53;6.05;;;4.13;;
10226;SDS011;15634;48.766;2.272;2023-04-24T13:41:19;5.00;;;2.55;;
10226;SDS011;15634;48.766;2.272;2023-04-24T13:43:46;4.18;;;2.50;;
10226;SDS011;15634;48.766;2.272;2023-04-24T13:46:13;5.00;;;2.53;;
10226;SDS011;15634;48.766;2.272;2023-04-24T13:48:41;4.30;;;2.47;;
10226;SDS011;15634;48.766;2.272;2023-04-24T13:51:08;3.47;;;2.60;;
10226;SDS011;15634;48.766;2.272;2023-04-24T13:53:34;4.47;;;2.45;;
10226;SDS011;15634;48.766;2.272;2023-04-24T13:56:03;2.40;;;1.92;;
10226;SDS011;15634;48.766;2.272;2023-04-24T13:58:30;3.85;;;2.20;;
10226;SDS011;15634;48.766;2.272;2023-04-24T14:00:58;2.80;;;2.00;;
10226;SDS011;15634;48.766;2.272;2023-04-24T14:03:25;2.75;;;2.15;;
10226;SDS011;15634;48.766;2.272;2023-04-24T14:05:53;4.75;;;2.20;;
10226;SDS011;15634;48.766;2.272;2023-04-24T14:08:19;2.95;;;2.10;;
10226;SDS011;15634;48.766;2.272;2023-04-24T14:10:46;9.27;;;3.38;;
10226;SDS011;15634;48.766;2.272;2023-04-24T14:13:12;4.15;;;2.35;;
10226;SDS011;15634;48.766;2.272;2023-04-24T14:15:39;3.17;;;2.00;;
10226;SDS011;15634;48.766;2.272;2023-04-24T14:18:06;2.97;;;2.00;;
10226;SDS011;15634;48.766;2.272;2023-04-24T14:20:32;4.50;;;2.10;;
10226;SDS011;15634;48.766;2.272;2023-04-24T14:23:00;2.88;;;1.95;;
10226;SDS011;15634;48.766;2.272;2023-04-24T14:25:27;5.40;;;2.13;;
10226;SDS011;15634;48.766;2.272;2023-04-24T14:27:55;6.63;;;3.30;;
10226;SDS011;15634;48.766;2.272;2023-04-24T14:30:21;5.72;;;2.50;;
10226;SDS011;15634;48.766;2.272;2023-04-24T14:32:48;3.25;;;2.47;;
10226;SDS011;15634;48.766;2.272;2023-04-24T14:35:15;4.43;;;2.40;;
10226;SDS011;15634;48.766;2.272;2023-04-24T14:37:41;4.25;;;2.00;;
10226;SDS011;15634;48.766;2.272;2023-04-24T14:40:10;4.65;;;2.22;;
10226;SDS011;15634;48.766;2.272;2023-04-24T14:42:37;5.35;;;2.55;;
10226;SDS011;15634;48.766;2.272;2023-04-24T14:45:04;3.70;;;2.33;;
10226;SDS011;15634;48.766;2.272;2023-04-24T14:47:31;5.90;;;2.83;;
10226;SDS011;15634;48.766;2.272;2023-04-24T14:49:58;7.90;;;3.42;;